sensor_id;sensor_type;location;lat;lon;timestamp;P1;durP1;ratioP1;P2;durP2;ratioP2
15104;SDS011;7653;48.994;9.212;2022-08-04T00:01:28;3.20;;;1.50;;
15104;SDS011;7653;48.994;9.212;2022-08-04T00:04:11;3.43;;;1.70;;
15104;SDS011;7653;48.994;9.212;2022-08-04T00:06:47;5.27;;;2.10;;
15104;SDS011;7653;48.994;9.212;2022-08-04T00:09:51;3.70;;;1.97;;
15104;SDS011;7653;48.994;9.212;2022-08-04T00:12:24;4.77;;;1.80;;
15104;SDS011;7653;48.994;9.212;2022-08-04T00:14:54;5.43;;;2.20;;
15104;SDS011;7653;48.994;9.212;2022-08-04T00:17:25;3.60;;;1.63;;
15104;SDS011;7653;48.994;9.212;2022-08-04T00:19:58;3.23;;;2.17;;
15104;SDS011;7653;48.994;9.212;2022-08-04T00:22:27;3.80;;;2.03;;
15104;SDS011;7653;48.994;9.212;2022-08-04T00:24:56;7.20;;;2.30;;
15104;SDS011;7653;48.994;9.212;2022-08-04T00:27:29;7.30;;;2.30;;
15104;SDS011;7653;48.994;9.212;2022-08-04T00:29:56;5.50;;;2.33;;
15104;SDS011;7653;48.994;9.212;2022-08-04T00:32:22;1.93;;;1.80;;
15104;SDS011;7653;48.994;9.212;2022-08-04T00:34:50;5.30;;;2.03;;
15104;SDS011;7653;48.994;9.212;2022-08-04T00:37:22;7.67;;;1.80;;
15104;SDS011;7653;48.994;9.212;2022-08-04T00:40:02;4.87;;;2.03;;
15104;SDS011;7653;48.994;9.212;2022-08-04T00:43:04;2.37;;;2.13;;
15104;SDS011;7653;48.994;9.212;2022-08-04T00:51:55;4.90;;;2.10;;
15104;SDS011;7653;48.994;9.212;2022-08-04T00:57:23;1.80;;;1.70;;
15104;SDS011;7653;48.994;9.212;2022-08-04T01:05:51;4.03;;;1.90;;
15104;SDS011;7653;48.994;9.212;2022-08-04T01:16:57;2.20;;;1.87;;
15104;SDS011;7653;48.994;9.212;2022-08-04T01:30:25;2.17;;;1.80;;
15104;SDS011;7653;48.994;9.212;2022-08-04T01:32:52;2.57;;;1.50;;
15104;SDS011;7653;48.994;9.212;2022-08-04T01:35:46;2.93;;;1.80;;
15104;SDS011;7653;48.994;9.212;2022-08-04T01:41:12;2.83;;;1.97;;
15104;SDS011;7653;48.994;9.212;2022-08-04T01:43:43;3.97;;;1.93;;
15104;SDS011;7653;48.994;9.212;2022-08-04T01:46:11;2.67;;;1.50;;
15104;SDS011;7653;48.994;9.212;2022-08-04T01:48:39;3.30;;;2.03;;
15104;SDS011;7653;48.994;9.212;2022-08-04T01:51:07;2.50;;;2.03;;
15104;SDS011;7653;48.994;9.212;2022-08-04T01:53:34;3.57;;;2.00;;
15104;SDS011;7653;48.994;9.212;2022-08-04T01:56:06;4.60;;;1.80;;
15104;SDS011;7653;48.994;9.212;2022-08-04T01:58:37;3.30;;;2.03;;
15104;SDS011;7653;48.994;9.212;2022-08-04T02:01:08;2.47;;;1.90;;
15104;SDS011;7653;48.994;9.212;2022-08-04T02:03:36;2.67;;;1.90;;
15104;SDS011;7653;48.994;9.212;2022-08-04T02:06:17;2.43;;;1.80;;
15104;SDS011;7653;48.994;9.212;2022-08-04T02:11:48;2.33;;;1.90;;
15104;SDS011;7653;48.994;9.212;2022-08-04T02:14:44;2.20;;;2.00;;
15104;SDS011;7653;48.994;9.212;2022-08-04T02:17:21;2.57;;;1.83;;
15104;SDS011;7653;48.994;9.212;2022-08-04T02:20:02;2.13;;;1.70;;
15104;SDS011;7653;48.994;9.212;2022-08-04T02:22:38;3.87;;;1.80;;
15104;SDS011;7653;48.994;9.212;2022-08-04T02:25:10;2.37;;;1.80;;
15104;SDS011;7653;48.994;9.212;2022-08-04T02:30:39;3.47;;;2.07;;
15104;SDS011;7653;48.994;9.212;2022-08-04T02:33:11;2.53;;;1.97;;
15104;SDS011;7653;48.994;9.212;2022-08-04T02:35:40;2.93;;;1.90;;
15104;SDS011;7653;48.994;9.212;2022-08-04T02:41:00;2.97;;;1.90;;
15104;SDS011;7653;48.994;9.212;2022-08-04T02:43:26;3.17;;;1.70;;
15104;SDS011;7653;48.994;9.212;2022-08-04T02:45:55;1.97;;;1.77;;
15104;SDS011;7653;48.994;9.212;2022-08-04T02:48:24;2.30;;;1.87;;
15104;SDS011;7653;48.994;9.212;2022-08-04T02:50:52;2.70;;;1.97;;
15104;SDS011;7653;48.994;9.212;2022-08-04T02:53:21;2.60;;;1.90;;
15104;SDS011;7653;48.994;9.212;2022-08-04T02:55:47;2.27;;;1.97;;
15104;SDS011;7653;48.994;9.212;2022-08-04T02:58:16;4.97;;;1.97;;
15104;SDS011;7653;48.994;9.212;2022-08-04T03:00:44;2.80;;;2.30;;
15104;SDS011;7653;48.994;9.212;2022-08-04T03:03:15;2.33;;;2.07;;
15104;SDS011;7653;48.994;9.212;2022-08-04T03:42:31;4.70;;;2.37;;
15104;SDS011;7653;48.994;9.212;2022-08-04T03:48:11;5.67;;;2.10;;
15104;SDS011;7653;48.994;9.212;2022-08-04T03:50:56;2.63;;;2.13;;
15104;SDS011;7653;48.994;9.212;2022-08-04T03:56:41;7.17;;;2.43;;
15104;SDS011;7653;48.994;9.212;2022-08-04T04:16:18;2.63;;;2.30;;
15104;SDS011;7653;48.994;9.212;2022-08-04T04:44:53;4.17;;;2.13;;
15104;SDS011;7653;48.994;9.212;2022-08-04T04:52:52;2.30;;;2.10;;
15104;SDS011;7653;48.994;9.212;2022-08-04T04:58:27;5.47;;;2.20;;
15104;SDS011;7653;48.994;9.212;2022-08-04T05:14:52;8.17;;;2.63;;
15104;SDS011;7653;48.994;9.212;2022-08-04T05:17:32;8.80;;;2.43;;
15104;SDS011;7653;48.994;9.212;2022-08-04T05:22:51;12.50;;;2.70;;
15104;SDS011;7653;48.994;9.212;2022-08-04T05:30:48;3.83;;;2.20;;
15104;SDS011;7653;48.994;9.212;2022-08-04T05:36:20;4.10;;;2.20;;
15104;SDS011;7653;48.994;9.212;2022-08-04T05:38:54;5.33;;;2.23;;
15104;SDS011;7653;48.994;9.212;2022-08-04T05:41:23;5.30;;;2.10;;
15104;SDS011;7653;48.994;9.212;2022-08-04T05:43:52;4.43;;;2.10;;
15104;SDS011;7653;48.994;9.212;2022-08-04T05:46:20;2.57;;;1.73;;
15104;SDS011;7653;48.994;9.212;2022-08-04T05:48:46;7.03;;;2.17;;
15104;SDS011;7653;48.994;9.212;2022-08-04T05:51:13;3.80;;;2.13;;
15104;SDS011;7653;48.994;9.212;2022-08-04T05:53:40;5.37;;;2.30;;
15104;SDS011;7653;48.994;9.212;2022-08-04T05:56:09;8.47;;;2.43;;
15104;SDS011;7653;48.994;9.212;2022-08-04T05:58:39;15.50;;;3.27;;
15104;SDS011;7653;48.994;9.212;2022-08-04T06:01:07;18.43;;;3.10;;
15104;SDS011;7653;48.994;9.212;2022-08-04T06:03:34;20.77;;;3.20;;
15104;SDS011;7653;48.994;9.212;2022-08-04T06:06:02;18.00;;;3.27;;
15104;SDS011;7653;48.994;9.212;2022-08-04T06:08:29;15.70;;;3.20;;
15104;SDS011;7653;48.994;9.212;2022-08-04T06:10:56;16.67;;;3.60;;
15104;SDS011;7653;48.994;9.212;2022-08-04T06:13:28;9.93;;;2.93;;
15104;SDS011;7653;48.994;9.212;2022-08-04T06:15:54;15.57;;;3.00;;
15104;SDS011;7653;48.994;9.212;2022-08-04T06:18:21;23.37;;;3.07;;
15104;SDS011;7653;48.994;9.212;2022-08-04T06:20:49;18.43;;;3.20;;
15104;SDS011;7653;48.994;9.212;2022-08-04T06:23:19;11.67;;;2.47;;
15104;SDS011;7653;48.994;9.212;2022-08-04T06:25:48;13.13;;;3.03;;
15104;SDS011;7653;48.994;9.212;2022-08-04T06:28:17;17.50;;;2.67;;
15104;SDS011;7653;48.994;9.212;2022-08-04T06:30:44;16.53;;;3.37;;
15104;SDS011;7653;48.994;9.212;2022-08-04T06:33:13;18.73;;;3.50;;
15104;SDS011;7653;48.994;9.212;2022-08-04T06:35:54;14.93;;;3.00;;
15104;SDS011;7653;48.994;9.212;2022-08-04T06:38:22;12.77;;;2.67;;
15104;SDS011;7653;48.994;9.212;2022-08-04T06:40:49;13.37;;;2.90;;
15104;SDS011;7653;48.994;9.212;2022-08-04T06:43:15;14.53;;;2.73;;
15104;SDS011;7653;48.994;9.212;2022-08-04T06:45:42;11.67;;;2.53;;
15104;SDS011;7653;48.994;9.212;2022-08-04T06:48:10;13.67;;;2.77;;
15104;SDS011;7653;48.994;9.212;2022-08-04T06:50:37;8.47;;;2.47;;
15104;SDS011;7653;48.994;9.212;2022-08-04T06:53:03;5.50;;;2.40;;
15104;SDS011;7653;48.994;9.212;2022-08-04T06:55:34;11.37;;;2.17;;
15104;SDS011;7653;48.994;9.212;2022-08-04T06:58:01;4.43;;;1.80;;
15104;SDS011;7653;48.994;9.212;2022-08-04T07:00:27;10.27;;;1.90;;
15104;SDS011;7653;48.994;9.212;2022-08-04T07:02:59;4.83;;;2.03;;
15104;SDS011;7653;48.994;9.212;2022-08-04T07:05:25;6.37;;;2.10;;
15104;SDS011;7653;48.994;9.212;2022-08-04T07:07:52;4.90;;;2.00;;
15104;SDS011;7653;48.994;9.212;2022-08-04T07:10:18;3.93;;;2.23;;
15104;SDS011;7653;48.994;9.212;2022-08-04T07:12:46;5.20;;;2.17;;
15104;SDS011;7653;48.994;9.212;2022-08-04T07:15:13;3.97;;;1.80;;
15104;SDS011;7653;48.994;9.212;2022-08-04T07:17:42;2.93;;;1.87;;
15104;SDS011;7653;48.994;9.212;2022-08-04T07:20:08;2.93;;;1.50;;
15104;SDS011;7653;48.994;9.212;2022-08-04T07:22:34;5.60;;;1.98;;
15104;SDS011;7653;48.994;9.212;2022-08-04T07:25:01;4.53;;;2.03;;
15104;SDS011;7653;48.994;9.212;2022-08-04T07:27:32;6.60;;;1.80;;
15104;SDS011;7653;48.994;9.212;2022-08-04T07:29:57;7.93;;;2.10;;
15104;SDS011;7653;48.994;9.212;2022-08-04T07:32:23;6.40;;;1.90;;
15104;SDS011;7653;48.994;9.212;2022-08-04T07:34:50;7.15;;;1.98;;
15104;SDS011;7653;48.994;9.212;2022-08-04T07:37:16;4.47;;;1.95;;
15104;SDS011;7653;48.994;9.212;2022-08-04T07:39:42;5.53;;;2.17;;
15104;SDS011;7653;48.994;9.212;2022-08-04T07:42:08;9.00;;;2.10;;
15104;SDS011;7653;48.994;9.212;2022-08-04T07:44:35;7.10;;;1.88;;
15104;SDS011;7653;48.994;9.212;2022-08-04T07:47:02;7.15;;;1.98;;
15104;SDS011;7653;48.994;9.212;2022-08-04T07:49:29;5.60;;;1.98;;
15104;SDS011;7653;48.994;9.212;2022-08-04T07:51:55;3.10;;;1.42;;
15104;SDS011;7653;48.994;9.212;2022-08-04T07:54:22;7.63;;;2.10;;
15104;SDS011;7653;48.994;9.212;2022-08-04T07:56:48;3.15;;;1.65;;
15104;SDS011;7653;48.994;9.212;2022-08-04T07:59:15;8.50;;;2.25;;
15104;SDS011;7653;48.994;9.212;2022-08-04T08:01:41;9.77;;;2.05;;
15104;SDS011;7653;48.994;9.212;2022-08-04T08:04:08;4.07;;;1.70;;
15104;SDS011;7653;48.994;9.212;2022-08-04T08:06:35;1.95;;;1.70;;
15104;SDS011;7653;48.994;9.212;2022-08-04T08:09:15;7.40;;;1.80;;
15104;SDS011;7653;48.994;9.212;2022-08-04T08:11:48;6.35;;;1.83;;
15104;SDS011;7653;48.994;9.212;2022-08-04T08:14:38;3.95;;;1.90;;
15104;SDS011;7653;48.994;9.212;2022-08-04T08:17:04;3.75;;;1.80;;
15104;SDS011;7653;48.994;9.212;2022-08-04T08:19:30;9.20;;;1.92;;
15104;SDS011;7653;48.994;9.212;2022-08-04T08:21:57;4.75;;;1.60;;
15104;SDS011;7653;48.994;9.212;2022-08-04T08:24:23;4.00;;;1.40;;
15104;SDS011;7653;48.994;9.212;2022-08-04T08:26:49;6.85;;;1.85;;
15104;SDS011;7653;48.994;9.212;2022-08-04T08:29:15;9.50;;;1.90;;
15104;SDS011;7653;48.994;9.212;2022-08-04T08:31:41;5.97;;;1.60;;
15104;SDS011;7653;48.994;9.212;2022-08-04T08:34:08;1.85;;;1.30;;
15104;SDS011;7653;48.994;9.212;2022-08-04T08:36:43;4.40;;;1.65;;
15104;SDS011;7653;48.994;9.212;2022-08-04T08:39:18;3.75;;;1.55;;
15104;SDS011;7653;48.994;9.212;2022-08-04T08:45:31;2.65;;;1.52;;
15104;SDS011;7653;48.994;9.212;2022-08-04T09:07:52;3.72;;;1.50;;
15104;SDS011;7653;48.994;9.212;2022-08-04T09:10:53;5.22;;;1.58;;
15104;SDS011;7653;48.994;9.212;2022-08-04T09:19:03;4.60;;;1.63;;
15104;SDS011;7653;48.994;9.212;2022-08-04T09:21:40;4.85;;;1.92;;
15104;SDS011;7653;48.994;9.212;2022-08-04T09:24:37;3.00;;;1.40;;
15104;SDS011;7653;48.994;9.212;2022-08-04T09:27:14;3.78;;;1.58;;
15104;SDS011;7653;48.994;9.212;2022-08-04T09:43:50;5.15;;;2.15;;
15104;SDS011;7653;48.994;9.212;2022-08-04T09:46:31;6.95;;;1.88;;
15104;SDS011;7653;48.994;9.212;2022-08-04T09:57:43;2.45;;;1.70;;
15104;SDS011;7653;48.994;9.212;2022-08-04T10:00:21;4.43;;;1.80;;
15104;SDS011;7653;48.994;9.212;2022-08-04T10:02:57;4.00;;;2.00;;
15104;SDS011;7653;48.994;9.212;2022-08-04T10:10:59;3.42;;;1.60;;
15104;SDS011;7653;48.994;9.212;2022-08-04T10:19:23;3.08;;;1.88;;
15104;SDS011;7653;48.994;9.212;2022-08-04T10:27:11;1.80;;;1.70;;
15104;SDS011;7653;48.994;9.212;2022-08-04T10:29:46;2.47;;;1.67;;
15104;SDS011;7653;48.994;9.212;2022-08-04T10:32:27;2.28;;;1.80;;
15104;SDS011;7653;48.994;9.212;2022-08-04T10:35:08;2.40;;;1.58;;
15104;SDS011;7653;48.994;9.212;2022-08-04T10:38:29;2.70;;;1.85;;
15104;SDS011;7653;48.994;9.212;2022-08-04T10:41:05;2.28;;;1.95;;
15104;SDS011;7653;48.994;9.212;2022-08-04T10:43:43;5.28;;;1.77;;
15104;SDS011;7653;48.994;9.212;2022-08-04T10:46:28;7.30;;;2.22;;
15104;SDS011;7653;48.994;9.212;2022-08-04T10:49:08;3.22;;;1.70;;
15104;SDS011;7653;48.994;9.212;2022-08-04T10:51:45;4.05;;;1.83;;
15104;SDS011;7653;48.994;9.212;2022-08-04T10:57:33;3.40;;;1.90;;
15104;SDS011;7653;48.994;9.212;2022-08-04T11:00:12;1.95;;;1.80;;
15104;SDS011;7653;48.994;9.212;2022-08-04T11:08:12;2.10;;;1.60;;
15104;SDS011;7653;48.994;9.212;2022-08-04T11:10:45;2.83;;;1.60;;
15104;SDS011;7653;48.994;9.212;2022-08-04T11:13:37;2.67;;;1.80;;
15104;SDS011;7653;48.994;9.212;2022-08-04T11:16:08;2.22;;;1.70;;
15104;SDS011;7653;48.994;9.212;2022-08-04T11:21:31;5.20;;;1.98;;
15104;SDS011;7653;48.994;9.212;2022-08-04T11:24:08;2.10;;;1.77;;
15104;SDS011;7653;48.994;9.212;2022-08-04T11:26:46;3.88;;;1.70;;
15104;SDS011;7653;48.994;9.212;2022-08-04T11:29:35;2.03;;;1.60;;
15104;SDS011;7653;48.994;9.212;2022-08-04T11:32:34;2.35;;;1.65;;
15104;SDS011;7653;48.994;9.212;2022-08-04T11:35:26;1.98;;;1.30;;
15104;SDS011;7653;48.994;9.212;2022-08-04T11:37:57;2.10;;;1.45;;
15104;SDS011;7653;48.994;9.212;2022-08-04T11:40:48;2.55;;;1.50;;
15104;SDS011;7653;48.994;9.212;2022-08-04T11:43:21;4.05;;;1.65;;
15104;SDS011;7653;48.994;9.212;2022-08-04T11:45:57;5.28;;;1.80;;
15104;SDS011;7653;48.994;9.212;2022-08-04T11:48:38;1.75;;;1.65;;
15104;SDS011;7653;48.994;9.212;2022-08-04T11:51:15;2.70;;;1.75;;
15104;SDS011;7653;48.994;9.212;2022-08-04T11:53:42;1.98;;;1.55;;
15104;SDS011;7653;48.994;9.212;2022-08-04T11:56:11;3.00;;;1.60;;
15104;SDS011;7653;48.994;9.212;2022-08-04T11:58:39;3.05;;;1.80;;
15104;SDS011;7653;48.994;9.212;2022-08-04T12:04:12;2.38;;;1.50;;
15104;SDS011;7653;48.994;9.212;2022-08-04T12:06:48;1.77;;;1.65;;
15104;SDS011;7653;48.994;9.212;2022-08-04T12:12:34;1.85;;;1.65;;
15104;SDS011;7653;48.994;9.212;2022-08-04T12:20:23;1.63;;;1.50;;
15104;SDS011;7653;48.994;9.212;2022-08-04T12:22:52;1.55;;;1.45;;
15104;SDS011;7653;48.994;9.212;2022-08-04T12:25:29;2.53;;;1.75;;
15104;SDS011;7653;48.994;9.212;2022-08-04T12:28:04;3.05;;;1.80;;
15104;SDS011;7653;48.994;9.212;2022-08-04T12:31:18;2.45;;;1.60;;
15104;SDS011;7653;48.994;9.212;2022-08-04T12:37:42;3.15;;;1.70;;
15104;SDS011;7653;48.994;9.212;2022-08-04T12:43:35;1.80;;;1.60;;
15104;SDS011;7653;48.994;9.212;2022-08-04T12:48:52;3.92;;;2.08;;
15104;SDS011;7653;48.994;9.212;2022-08-04T12:51:28;3.33;;;1.80;;
15104;SDS011;7653;48.994;9.212;2022-08-04T12:54:06;2.50;;;1.80;;
15104;SDS011;7653;48.994;9.212;2022-08-04T12:56:34;2.10;;;1.70;;
15104;SDS011;7653;48.994;9.212;2022-08-04T12:59:05;4.00;;;2.00;;
15104;SDS011;7653;48.994;9.212;2022-08-04T13:01:46;4.47;;;2.10;;
15104;SDS011;7653;48.994;9.212;2022-08-04T13:04:23;4.03;;;1.85;;
15104;SDS011;7653;48.994;9.212;2022-08-04T13:06:52;2.22;;;1.65;;
15104;SDS011;7653;48.994;9.212;2022-08-04T13:09:25;2.90;;;1.77;;
15104;SDS011;7653;48.994;9.212;2022-08-04T13:11:58;1.60;;;1.50;;
15104;SDS011;7653;48.994;9.212;2022-08-04T13:14:30;2.47;;;1.70;;
15104;SDS011;7653;48.994;9.212;2022-08-04T13:17:00;2.83;;;1.90;;
15104;SDS011;7653;48.994;9.212;2022-08-04T13:19:27;2.67;;;1.50;;
15104;SDS011;7653;48.994;9.212;2022-08-04T13:21:55;2.58;;;1.80;;
15104;SDS011;7653;48.994;9.212;2022-08-04T13:24:24;2.50;;;1.80;;
15104;SDS011;7653;48.994;9.212;2022-08-04T13:26:59;3.22;;;1.88;;
15104;SDS011;7653;48.994;9.212;2022-08-04T13:29:36;2.20;;;1.73;;
15104;SDS011;7653;48.994;9.212;2022-08-04T13:32:08;5.43;;;1.58;;
15104;SDS011;7653;48.994;9.212;2022-08-04T13:34:35;4.05;;;1.85;;
15104;SDS011;7653;48.994;9.212;2022-08-04T13:37:05;4.50;;;1.95;;
15104;SDS011;7653;48.994;9.212;2022-08-04T13:39:34;1.83;;;1.73;;
15104;SDS011;7653;48.994;9.212;2022-08-04T13:42:09;2.80;;;1.88;;
15104;SDS011;7653;48.994;9.212;2022-08-04T13:44:39;2.25;;;1.80;;
15104;SDS011;7653;48.994;9.212;2022-08-04T13:47:19;3.38;;;1.63;;
15104;SDS011;7653;48.994;9.212;2022-08-04T13:52:32;2.40;;;1.73;;
15104;SDS011;7653;48.994;9.212;2022-08-04T13:54:58;2.92;;;2.05;;
15104;SDS011;7653;48.994;9.212;2022-08-04T13:57:32;1.95;;;1.75;;
15104;SDS011;7653;48.994;9.212;2022-08-04T14:00:08;2.00;;;1.83;;
15104;SDS011;7653;48.994;9.212;2022-08-04T14:02:41;1.80;;;1.70;;
15104;SDS011;7653;48.994;9.212;2022-08-04T14:05:14;1.92;;;1.77;;
15104;SDS011;7653;48.994;9.212;2022-08-04T14:07:46;3.50;;;1.67;;
15104;SDS011;7653;48.994;9.212;2022-08-04T14:10:17;4.18;;;2.00;;
15104;SDS011;7653;48.994;9.212;2022-08-04T14:12:46;1.85;;;1.40;;
15104;SDS011;7653;48.994;9.212;2022-08-04T14:28:50;1.83;;;1.60;;
15104;SDS011;7653;48.994;9.212;2022-08-04T14:31:19;3.65;;;1.80;;
15104;SDS011;7653;48.994;9.212;2022-08-04T14:33:48;3.10;;;1.70;;
15104;SDS011;7653;48.994;9.212;2022-08-04T14:36:16;1.85;;;1.60;;
15104;SDS011;7653;48.994;9.212;2022-08-04T14:41:29;3.22;;;1.70;;
15104;SDS011;7653;48.994;9.212;2022-08-04T14:44:08;2.33;;;1.48;;
15104;SDS011;7653;48.994;9.212;2022-08-04T14:46:33;1.90;;;1.75;;
15104;SDS011;7653;48.994;9.212;2022-08-04T14:49:19;3.30;;;1.80;;
15104;SDS011;7653;48.994;9.212;2022-08-04T14:56:57;1.90;;;1.77;;
15104;SDS011;7653;48.994;9.212;2022-08-04T14:59:26;2.72;;;1.42;;
15104;SDS011;7653;48.994;9.212;2022-08-04T15:02:04;3.13;;;1.80;;
15104;SDS011;7653;48.994;9.212;2022-08-04T15:04:30;2.58;;;1.70;;
15104;SDS011;7653;48.994;9.212;2022-08-04T15:06:56;2.03;;;1.60;;
15104;SDS011;7653;48.994;9.212;2022-08-04T15:09:22;2.45;;;1.65;;
15104;SDS011;7653;48.994;9.212;2022-08-04T15:11:48;2.50;;;1.60;;
15104;SDS011;7653;48.994;9.212;2022-08-04T15:14:14;2.58;;;1.80;;
15104;SDS011;7653;48.994;9.212;2022-08-04T15:16:43;2.53;;;1.80;;
15104;SDS011;7653;48.994;9.212;2022-08-04T15:19:17;1.60;;;1.50;;
15104;SDS011;7653;48.994;9.212;2022-08-04T15:22:09;2.40;;;1.60;;
15104;SDS011;7653;48.994;9.212;2022-08-04T15:24:36;3.20;;;1.70;;
15104;SDS011;7653;48.994;9.212;2022-08-04T15:27:14;2.72;;;1.75;;
15104;SDS011;7653;48.994;9.212;2022-08-04T15:29:41;2.53;;;1.80;;
15104;SDS011;7653;48.994;9.212;2022-08-04T15:32:15;1.70;;;1.60;;
15104;SDS011;7653;48.994;9.212;2022-08-04T15:40:24;2.65;;;1.70;;
15104;SDS011;7653;48.994;9.212;2022-08-04T15:45:46;2.65;;;1.88;;
15104;SDS011;7653;48.994;9.212;2022-08-04T15:53:28;2.05;;;1.70;;
15104;SDS011;7653;48.994;9.212;2022-08-04T15:55:54;4.63;;;1.90;;
15104;SDS011;7653;48.994;9.212;2022-08-04T15:58:23;2.25;;;1.77;;
15104;SDS011;7653;48.994;9.212;2022-08-04T16:08:27;2.35;;;1.80;;
15104;SDS011;7653;48.994;9.212;2022-08-04T16:10:52;2.75;;;1.90;;
15104;SDS011;7653;48.994;9.212;2022-08-04T16:13:19;2.83;;;1.80;;
15104;SDS011;7653;48.994;9.212;2022-08-04T16:15:47;5.95;;;1.67;;
15104;SDS011;7653;48.994;9.212;2022-08-04T16:18:18;4.57;;;1.70;;
15104;SDS011;7653;48.994;9.212;2022-08-04T16:20:51;1.50;;;1.40;;
15104;SDS011;7653;48.994;9.212;2022-08-04T16:26:05;3.42;;;1.90;;
15104;SDS011;7653;48.994;9.212;2022-08-04T16:31:01;2.50;;;1.73;;
15104;SDS011;7653;48.994;9.212;2022-08-04T16:33:32;2.15;;;1.60;;
15104;SDS011;7653;48.994;9.212;2022-08-04T16:35:59;2.20;;;1.80;;
15104;SDS011;7653;48.994;9.212;2022-08-04T16:38:30;3.22;;;1.75;;
15104;SDS011;7653;48.994;9.212;2022-08-04T16:40:58;1.75;;;1.65;;
15104;SDS011;7653;48.994;9.212;2022-08-04T16:43:29;2.08;;;1.60;;
15104;SDS011;7653;48.994;9.212;2022-08-04T16:46:02;3.70;;;1.90;;
15104;SDS011;7653;48.994;9.212;2022-08-04T16:48:30;1.98;;;1.77;;
15104;SDS011;7653;48.994;9.212;2022-08-04T16:56:11;2.15;;;1.90;;
15104;SDS011;7653;48.994;9.212;2022-08-04T16:58:42;1.65;;;1.50;;
15104;SDS011;7653;48.994;9.212;2022-08-04T17:01:10;2.33;;;1.85;;
15104;SDS011;7653;48.994;9.212;2022-08-04T17:03:38;2.90;;;1.83;;
15104;SDS011;7653;48.994;9.212;2022-08-04T17:06:22;1.52;;;1.42;;
15104;SDS011;7653;48.994;9.212;2022-08-04T17:08:57;2.28;;;1.77;;
15104;SDS011;7653;48.994;9.212;2022-08-04T17:11:32;3.25;;;1.90;;
15104;SDS011;7653;48.994;9.212;2022-08-04T17:13:57;1.70;;;1.60;;
15104;SDS011;7653;48.994;9.212;2022-08-04T17:16:23;3.15;;;1.70;;
15104;SDS011;7653;48.994;9.212;2022-08-04T17:18:53;2.10;;;1.77;;
15104;SDS011;7653;48.994;9.212;2022-08-04T17:21:23;2.53;;;1.67;;
15104;SDS011;7653;48.994;9.212;2022-08-04T17:23:52;1.85;;;1.75;;
15104;SDS011;7653;48.994;9.212;2022-08-04T17:26:25;3.83;;;1.73;;
15104;SDS011;7653;48.994;9.212;2022-08-04T17:28:53;2.85;;;1.75;;
15104;SDS011;7653;48.994;9.212;2022-08-04T17:31:21;1.95;;;1.80;;
15104;SDS011;7653;48.994;9.212;2022-08-04T17:33:53;4.80;;;1.63;;
15104;SDS011;7653;48.994;9.212;2022-08-04T17:36:21;3.53;;;1.73;;
15104;SDS011;7653;48.994;9.212;2022-08-04T17:38:50;2.40;;;1.98;;
15104;SDS011;7653;48.994;9.212;2022-08-04T17:41:24;2.47;;;1.80;;
15104;SDS011;7653;48.994;9.212;2022-08-04T17:43:54;2.45;;;1.60;;
15104;SDS011;7653;48.994;9.212;2022-08-04T17:49:38;3.25;;;1.88;;
15104;SDS011;7653;48.994;9.212;2022-08-04T17:54:27;4.50;;;1.80;;
15104;SDS011;7653;48.994;9.212;2022-08-04T17:57:11;2.78;;;1.90;;
15104;SDS011;7653;48.994;9.212;2022-08-04T18:02:28;2.70;;;1.73;;
15104;SDS011;7653;48.994;9.212;2022-08-04T18:04:55;3.78;;;1.90;;
15104;SDS011;7653;48.994;9.212;2022-08-04T18:07:35;3.85;;;1.98;;
15104;SDS011;7653;48.994;9.212;2022-08-04T18:10:02;4.45;;;1.90;;
15104;SDS011;7653;48.994;9.212;2022-08-04T18:12:32;2.53;;;1.75;;
15104;SDS011;7653;48.994;9.212;2022-08-04T18:17:38;5.82;;;1.90;;
15104;SDS011;7653;48.994;9.212;2022-08-04T18:20:12;4.03;;;2.08;;
15104;SDS011;7653;48.994;9.212;2022-08-04T18:22:42;2.00;;;1.80;;
15104;SDS011;7653;48.994;9.212;2022-08-04T18:25:13;2.65;;;2.00;;
15104;SDS011;7653;48.994;9.212;2022-08-04T18:27:48;3.78;;;1.80;;
15104;SDS011;7653;48.994;9.212;2022-08-04T18:30:16;2.20;;;1.90;;
15104;SDS011;7653;48.994;9.212;2022-08-04T18:32:45;3.92;;;1.80;;
15104;SDS011;7653;48.994;9.212;2022-08-04T18:35:16;8.27;;;2.13;;
15104;SDS011;7653;48.994;9.212;2022-08-04T18:37:42;3.92;;;2.05;;
15104;SDS011;7653;48.994;9.212;2022-08-04T18:40:08;5.90;;;2.13;;
15104;SDS011;7653;48.994;9.212;2022-08-04T18:42:37;6.82;;;2.40;;
15104;SDS011;7653;48.994;9.212;2022-08-04T18:45:07;9.35;;;2.60;;
15104;SDS011;7653;48.994;9.212;2022-08-04T18:47:35;21.10;;;3.45;;
15104;SDS011;7653;48.994;9.212;2022-08-04T18:50:01;16.20;;;3.50;;
15104;SDS011;7653;48.994;9.212;2022-08-04T18:52:27;25.10;;;3.88;;
15104;SDS011;7653;48.994;9.212;2022-08-04T18:55:24;19.17;;;3.53;;
15104;SDS011;7653;48.994;9.212;2022-08-04T18:57:50;24.10;;;3.95;;
15104;SDS011;7653;48.994;9.212;2022-08-04T19:00:16;26.15;;;3.40;;
15104;SDS011;7653;48.994;9.212;2022-08-04T19:02:42;29.70;;;4.10;;
15104;SDS011;7653;48.994;9.212;2022-08-04T19:05:07;40.60;;;5.20;;
15104;SDS011;7653;48.994;9.212;2022-08-04T19:07:36;55.28;;;6.70;;
15104;SDS011;7653;48.994;9.212;2022-08-04T19:10:54;39.95;;;5.20;;
15104;SDS011;7653;48.994;9.212;2022-08-04T19:13:20;22.23;;;3.40;;
15104;SDS011;7653;48.994;9.212;2022-08-04T19:15:46;12.68;;;2.70;;
15104;SDS011;7653;48.994;9.212;2022-08-04T19:18:11;6.10;;;2.50;;
15104;SDS011;7653;48.994;9.212;2022-08-04T19:20:37;5.47;;;2.40;;
15104;SDS011;7653;48.994;9.212;2022-08-04T19:23:06;7.50;;;2.65;;
15104;SDS011;7653;48.994;9.212;2022-08-04T19:25:47;8.98;;;2.30;;
15104;SDS011;7653;48.994;9.212;2022-08-04T19:28:15;5.90;;;2.50;;
15104;SDS011;7653;48.994;9.212;2022-08-04T19:30:42;9.23;;;2.90;;
15104;SDS011;7653;48.994;9.212;2022-08-04T19:33:08;9.15;;;2.85;;
15104;SDS011;7653;48.994;9.212;2022-08-04T19:35:34;12.15;;;2.80;;
15104;SDS011;7653;48.994;9.212;2022-08-04T19:38:02;10.65;;;2.60;;
15104;SDS011;7653;48.994;9.212;2022-08-04T19:40:28;6.75;;;2.30;;
15104;SDS011;7653;48.994;9.212;2022-08-04T19:42:57;12.50;;;3.08;;
15104;SDS011;7653;48.994;9.212;2022-08-04T19:45:22;7.15;;;2.63;;
15104;SDS011;7653;48.994;9.212;2022-08-04T19:47:48;4.55;;;2.60;;
15104;SDS011;7653;48.994;9.212;2022-08-04T19:50:14;10.90;;;3.35;;
15104;SDS011;7653;48.994;9.212;2022-08-04T19:52:40;15.25;;;2.78;;
15104;SDS011;7653;48.994;9.212;2022-08-04T19:55:06;9.05;;;2.80;;
15104;SDS011;7653;48.994;9.212;2022-08-04T19:57:35;12.77;;;3.22;;
15104;SDS011;7653;48.994;9.212;2022-08-04T20:00:02;11.85;;;3.17;;
15104;SDS011;7653;48.994;9.212;2022-08-04T20:02:28;14.10;;;2.97;;
15104;SDS011;7653;48.994;9.212;2022-08-04T20:04:56;10.57;;;3.28;;
15104;SDS011;7653;48.994;9.212;2022-08-04T20:07:22;7.82;;;2.78;;
15104;SDS011;7653;48.994;9.212;2022-08-04T20:09:48;9.90;;;2.83;;
15104;SDS011;7653;48.994;9.212;2022-08-04T20:12:14;13.55;;;3.20;;
15104;SDS011;7653;48.994;9.212;2022-08-04T20:14:39;18.60;;;4.10;;
15104;SDS011;7653;48.994;9.212;2022-08-04T20:17:05;16.25;;;3.38;;
15104;SDS011;7653;48.994;9.212;2022-08-04T20:19:34;12.80;;;3.17;;
15104;SDS011;7653;48.994;9.212;2022-08-04T20:22:03;19.15;;;3.30;;
15104;SDS011;7653;48.994;9.212;2022-08-04T20:24:31;16.50;;;3.13;;
15104;SDS011;7653;48.994;9.212;2022-08-04T20:26:57;11.85;;;3.20;;
15104;SDS011;7653;48.994;9.212;2022-08-04T20:29:23;9.25;;;2.80;;
15104;SDS011;7653;48.994;9.212;2022-08-04T20:31:49;9.60;;;2.65;;
15104;SDS011;7653;48.994;9.212;2022-08-04T20:34:14;16.40;;;3.45;;
15104;SDS011;7653;48.994;9.212;2022-08-04T20:36:40;35.42;;;5.03;;
15104;SDS011;7653;48.994;9.212;2022-08-04T20:39:06;16.83;;;3.35;;
15104;SDS011;7653;48.994;9.212;2022-08-04T20:41:32;7.18;;;2.70;;
15104;SDS011;7653;48.994;9.212;2022-08-04T20:44:01;12.20;;;2.72;;
15104;SDS011;7653;48.994;9.212;2022-08-04T20:46:28;14.65;;;3.33;;
15104;SDS011;7653;48.994;9.212;2022-08-04T20:48:54;14.27;;;3.42;;
15104;SDS011;7653;48.994;9.212;2022-08-04T20:51:20;14.20;;;3.25;;
15104;SDS011;7653;48.994;9.212;2022-08-04T20:53:50;14.68;;;4.00;;
15104;SDS011;7653;48.994;9.212;2022-08-04T20:56:16;16.35;;;3.50;;
15104;SDS011;7653;48.994;9.212;2022-08-04T20:58:41;11.35;;;3.30;;
15104;SDS011;7653;48.994;9.212;2022-08-04T21:01:11;7.28;;;2.95;;